sensor_id;sensor_type;location;lat;lon;timestamp;P1;durP1;ratioP1;P2;durP2;ratioP2
20138;SDS011;10230;51.502;10.800;2023-06-22T00:02:13;7.13;;;6.40;;
20138;SDS011;10230;51.502;10.800;2023-06-22T00:04:39;7.65;;;6.82;;
20138;SDS011;10230;51.502;10.800;2023-06-22T00:07:05;12.35;;;7.55;;
20138;SDS011;10230;51.502;10.800;2023-06-22T00:09:31;9.95;;;8.40;;
20138;SDS011;10230;51.502;10.800;2023-06-22T00:11:58;9.90;;;8.80;;
20138;SDS011;10230;51.502;10.800;2023-06-22T00:14:24;9.63;;;7.53;;
20138;SDS011;10230;51.502;10.800;2023-06-22T00:16:49;11.23;;;8.23;;
20138;SDS011;10230;51.502;10.800;2023-06-22T00:19:19;11.20;;;9.55;;
20138;SDS011;10230;51.502;10.800;2023-06-22T00:21:46;13.10;;;10.93;;
20138;SDS011;10230;51.502;10.800;2023-06-22T00:24:13;11.95;;;9.52;;
20138;SDS011;10230;51.502;10.800;2023-06-22T00:26:39;11.93;;;8.68;;
20138;SDS011;10230;51.502;10.800;2023-06-22T00:29:05;8.90;;;7.97;;
20138;SDS011;10230;51.502;10.800;2023-06-22T00:31:31;7.40;;;6.70;;
20138;SDS011;10230;51.502;10.800;2023-06-22T00:33:57;7.93;;;7.03;;
20138;SDS011;10230;51.502;10.800;2023-06-22T00:36:23;7.93;;;6.93;;
20138;SDS011;10230;51.502;10.800;2023-06-22T00:38:49;9.20;;;6.50;;
20138;SDS011;10230;51.502;10.800;2023-06-22T00:41:16;9.20;;;6.40;;
20138;SDS011;10230;51.502;10.800;2023-06-22T00:43:42;8.75;;;7.00;;
20138;SDS011;10230;51.502;10.800;2023-06-22T00:46:08;7.75;;;6.45;;
20138;SDS011;10230;51.502;10.800;2023-06-22T00:48:34;8.95;;;6.93;;
20138;SDS011;10230;51.502;10.800;2023-06-22T00:51:02;7.15;;;6.45;;
20138;SDS011;10230;51.502;10.800;2023-06-22T00:53:28;6.88;;;6.22;;
20138;SDS011;10230;51.502;10.800;2023-06-22T00:55:54;6.22;;;5.63;;
20138;SDS011;10230;51.502;10.800;2023-06-22T00:58:21;7.03;;;6.38;;
20138;SDS011;10230;51.502;10.800;2023-06-22T01:00:47;7.72;;;6.45;;
20138;SDS011;10230;51.502;10.800;2023-06-22T01:03:13;7.80;;;6.47;;
20138;SDS011;10230;51.502;10.800;2023-06-22T01:05:39;8.35;;;5.85;;
20138;SDS011;10230;51.502;10.800;2023-06-22T01:11:03;8.15;;;6.70;;
20138;SDS011;10230;51.502;10.800;2023-06-22T01:13:35;6.53;;;5.82;;
20138;SDS011;10230;51.502;10.800;2023-06-22T01:16:25;6.40;;;5.75;;
20138;SDS011;10230;51.502;10.800;2023-06-22T01:18:50;7.25;;;6.32;;
20138;SDS011;10230;51.502;10.800;2023-06-22T01:21:18;17.80;;;7.80;;
20138;SDS011;10230;51.502;10.800;2023-06-22T01:23:56;6.35;;;5.72;;
20138;SDS011;10230;51.502;10.800;2023-06-22T01:29:08;8.57;;;6.80;;
20138;SDS011;10230;51.502;10.800;2023-06-22T01:31:37;7.47;;;6.57;;
20138;SDS011;10230;51.502;10.800;2023-06-22T01:34:04;8.77;;;7.15;;
20138;SDS011;10230;51.502;10.800;2023-06-22T01:36:31;8.23;;;6.75;;
20138;SDS011;10230;51.502;10.800;2023-06-22T01:38:57;8.43;;;7.25;;
20138;SDS011;10230;51.502;10.800;2023-06-22T01:41:25;7.30;;;6.55;;
20138;SDS011;10230;51.502;10.800;2023-06-22T01:43:51;7.95;;;6.28;;
20138;SDS011;10230;51.502;10.800;2023-06-22T01:46:18;7.38;;;6.68;;
20138;SDS011;10230;51.502;10.800;2023-06-22T01:48:44;6.80;;;6.03;;
20138;SDS011;10230;51.502;10.800;2023-06-22T01:51:11;10.13;;;7.07;;
20138;SDS011;10230;51.502;10.800;2023-06-22T01:53:37;8.90;;;6.80;;
20138;SDS011;10230;51.502;10.800;2023-06-22T01:56:03;8.73;;;7.70;;
20138;SDS011;10230;51.502;10.800;2023-06-22T01:58:30;8.52;;;7.28;;
20138;SDS011;10230;51.502;10.800;2023-06-22T02:00:57;9.20;;;7.20;;
20138;SDS011;10230;51.502;10.800;2023-06-22T02:03:29;9.63;;;7.40;;
20138;SDS011;10230;51.502;10.800;2023-06-22T02:06:04;10.88;;;7.97;;
20138;SDS011;10230;51.502;10.800;2023-06-22T02:08:32;8.45;;;7.22;;
20138;SDS011;10230;51.502;10.800;2023-06-22T02:11:00;10.23;;;7.10;;
20138;SDS011;10230;51.502;10.800;2023-06-22T02:13:28;8.05;;;6.53;;
20138;SDS011;10230;51.502;10.800;2023-06-22T02:15:54;8.43;;;6.88;;
20138;SDS011;10230;51.502;10.800;2023-06-22T02:18:20;7.70;;;6.60;;
20138;SDS011;10230;51.502;10.800;2023-06-22T02:20:46;9.55;;;6.70;;
20138;SDS011;10230;51.502;10.800;2023-06-22T02:23:12;9.82;;;7.35;;
20138;SDS011;10230;51.502;10.800;2023-06-22T02:25:38;7.22;;;6.53;;
20138;SDS011;10230;51.502;10.800;2023-06-22T02:28:04;8.32;;;7.10;;
20138;SDS011;10230;51.502;10.800;2023-06-22T02:30:31;7.13;;;6.40;;
20138;SDS011;10230;51.502;10.800;2023-06-22T02:32:57;8.13;;;7.28;;
20138;SDS011;10230;51.502;10.800;2023-06-22T02:35:26;7.97;;;7.18;;
20138;SDS011;10230;51.502;10.800;2023-06-22T02:37:57;10.98;;;6.82;;
20138;SDS011;10230;51.502;10.800;2023-06-22T02:40:24;8.10;;;6.60;;
20138;SDS011;10230;51.502;10.800;2023-06-22T02:42:50;7.00;;;6.30;;
20138;SDS011;10230;51.502;10.800;2023-06-22T02:45:16;8.07;;;6.72;;
20138;SDS011;10230;51.502;10.800;2023-06-22T02:47:42;6.43;;;5.82;;
20138;SDS011;10230;51.502;10.800;2023-06-22T02:50:08;10.13;;;6.45;;
20138;SDS011;10230;51.502;10.800;2023-06-22T02:52:34;8.20;;;6.95;;
20138;SDS011;10230;51.502;10.800;2023-06-22T02:55:00;7.15;;;6.22;;
20138;SDS011;10230;51.502;10.800;2023-06-22T02:57:26;8.05;;;6.88;;
20138;SDS011;10230;51.502;10.800;2023-06-22T02:59:52;7.60;;;6.45;;
20138;SDS011;10230;51.502;10.800;2023-06-22T03:02:20;8.90;;;6.93;;
20138;SDS011;10230;51.502;10.800;2023-06-22T03:04:46;8.65;;;7.50;;
20138;SDS011;10230;51.502;10.800;2023-06-22T03:07:17;6.97;;;6.13;;
20138;SDS011;10230;51.502;10.800;2023-06-22T03:09:43;8.27;;;7.47;;
20138;SDS011;10230;51.502;10.800;2023-06-22T03:12:09;9.02;;;6.20;;
20138;SDS011;10230;51.502;10.800;2023-06-22T03:14:35;8.25;;;6.80;;
20138;SDS011;10230;51.502;10.800;2023-06-22T03:17:02;10.40;;;6.80;;
20138;SDS011;10230;51.502;10.800;2023-06-22T03:19:28;9.27;;;7.07;;
20138;SDS011;10230;51.502;10.800;2023-06-22T03:21:56;8.02;;;6.88;;
20138;SDS011;10230;51.502;10.800;2023-06-22T03:24:22;13.75;;;8.25;;
20138;SDS011;10230;51.502;10.800;2023-06-22T03:26:48;9.57;;;6.45;;
20138;SDS011;10230;51.502;10.800;2023-06-22T03:29:14;7.93;;;7.13;;
20138;SDS011;10230;51.502;10.800;2023-06-22T03:31:40;9.10;;;7.45;;
20138;SDS011;10230;51.502;10.800;2023-06-22T03:34:06;7.45;;;6.38;;
20138;SDS011;10230;51.502;10.800;2023-06-22T03:36:32;8.68;;;7.30;;
20138;SDS011;10230;51.502;10.800;2023-06-22T03:38:58;9.68;;;7.53;;
20138;SDS011;10230;51.502;10.800;2023-06-22T03:41:24;11.55;;;8.52;;
20138;SDS011;10230;51.502;10.800;2023-06-22T03:43:50;12.02;;;7.82;;
20138;SDS011;10230;51.502;10.800;2023-06-22T03:46:16;10.15;;;7.65;;
20138;SDS011;10230;51.502;10.800;2023-06-22T03:48:42;11.85;;;6.85;;
20138;SDS011;10230;51.502;10.800;2023-06-22T03:51:08;11.00;;;8.13;;
20138;SDS011;10230;51.502;10.800;2023-06-22T03:53:34;9.00;;;7.97;;
20138;SDS011;10230;51.502;10.800;2023-06-22T03:56:00;8.93;;;7.97;;
20138;SDS011;10230;51.502;10.800;2023-06-22T03:58:26;8.73;;;7.45;;
20138;SDS011;10230;51.502;10.800;2023-06-22T04:00:57;10.05;;;8.55;;
20138;SDS011;10230;51.502;10.800;2023-06-22T04:03:25;12.63;;;9.13;;
20138;SDS011;10230;51.502;10.800;2023-06-22T04:05:51;12.55;;;8.27;;
20138;SDS011;10230;51.502;10.800;2023-06-22T04:08:17;12.57;;;8.32;;
20138;SDS011;10230;51.502;10.800;2023-06-22T04:10:43;15.77;;;7.95;;
20138;SDS011;10230;51.502;10.800;2023-06-22T04:13:10;9.73;;;7.38;;
20138;SDS011;10230;51.502;10.800;2023-06-22T04:15:38;8.95;;;7.45;;
20138;SDS011;10230;51.502;10.800;2023-06-22T04:18:04;10.55;;;8.25;;
20138;SDS011;10230;51.502;10.800;2023-06-22T04:23:35;9.32;;;7.82;;
20138;SDS011;10230;51.502;10.800;2023-06-22T04:26:02;8.20;;;7.30;;
20138;SDS011;10230;51.502;10.800;2023-06-22T04:28:29;8.27;;;7.43;;
20138;SDS011;10230;51.502;10.800;2023-06-22T04:31:05;11.10;;;8.27;;
20138;SDS011;10230;51.502;10.800;2023-06-22T04:33:31;8.82;;;7.88;;
20138;SDS011;10230;51.502;10.800;2023-06-22T04:35:58;9.10;;;7.57;;
20138;SDS011;10230;51.502;10.800;2023-06-22T04:38:28;10.85;;;8.40;;
20138;SDS011;10230;51.502;10.800;2023-06-22T04:40:58;8.70;;;7.80;;
20138;SDS011;10230;51.502;10.800;2023-06-22T04:43:29;9.00;;;8.07;;
20138;SDS011;10230;51.502;10.800;2023-06-22T04:45:56;7.40;;;6.50;;
20138;SDS011;10230;51.502;10.800;2023-06-22T04:48:28;10.55;;;6.88;;
20138;SDS011;10230;51.502;10.800;2023-06-22T04:50:58;10.07;;;7.68;;
20138;SDS011;10230;51.502;10.800;2023-06-22T04:53:28;8.48;;;7.10;;
20138;SDS011;10230;51.502;10.800;2023-06-22T04:55:55;9.90;;;6.63;;
20138;SDS011;10230;51.502;10.800;2023-06-22T04:58:21;9.30;;;6.68;;
20138;SDS011;10230;51.502;10.800;2023-06-22T05:00:47;8.98;;;6.88;;
20138;SDS011;10230;51.502;10.800;2023-06-22T05:03:17;9.95;;;7.38;;
20138;SDS011;10230;51.502;10.800;2023-06-22T05:05:43;7.60;;;6.80;;
20138;SDS011;10230;51.502;10.800;2023-06-22T05:08:09;7.95;;;6.90;;
20138;SDS011;10230;51.502;10.800;2023-06-22T05:10:35;9.85;;;8.15;;
20138;SDS011;10230;51.502;10.800;2023-06-22T05:13:14;7.57;;;6.85;;
20138;SDS011;10230;51.502;10.800;2023-06-22T05:15:40;7.53;;;6.57;;
20138;SDS011;10230;51.502;10.800;2023-06-22T05:18:10;11.07;;;7.07;;
20138;SDS011;10230;51.502;10.800;2023-06-22T05:20:52;9.07;;;7.05;;
20138;SDS011;10230;51.502;10.800;2023-06-22T05:23:18;6.97;;;6.25;;
20138;SDS011;10230;51.502;10.800;2023-06-22T05:25:44;7.57;;;6.82;;
20138;SDS011;10230;51.502;10.800;2023-06-22T05:28:10;8.02;;;6.60;;
20138;SDS011;10230;51.502;10.800;2023-06-22T05:30:37;7.20;;;6.50;;
20138;SDS011;10230;51.502;10.800;2023-06-22T05:33:03;7.72;;;6.78;;
20138;SDS011;10230;51.502;10.800;2023-06-22T05:35:30;7.10;;;6.18;;
20138;SDS011;10230;51.502;10.800;2023-06-22T05:37:56;8.38;;;7.07;;
20138;SDS011;10230;51.502;10.800;2023-06-22T05:40:23;9.07;;;7.15;;
20138;SDS011;10230;51.502;10.800;2023-06-22T05:42:49;11.55;;;9.10;;
20138;SDS011;10230;51.502;10.800;2023-06-22T05:45:15;11.18;;;9.10;;
20138;SDS011;10230;51.502;10.800;2023-06-22T05:47:42;14.32;;;10.45;;
20138;SDS011;10230;51.502;10.800;2023-06-22T05:50:08;13.93;;;10.32;;
20138;SDS011;10230;51.502;10.800;2023-06-22T05:52:34;13.95;;;10.68;;
20138;SDS011;10230;51.502;10.800;2023-06-22T05:55:01;12.65;;;9.05;;
20138;SDS011;10230;51.502;10.800;2023-06-22T05:57:28;11.75;;;9.75;;
20138;SDS011;10230;51.502;10.800;2023-06-22T05:59:54;10.63;;;9.48;;
20138;SDS011;10230;51.502;10.800;2023-06-22T06:02:21;12.57;;;8.75;;
20138;SDS011;10230;51.502;10.800;2023-06-22T06:04:47;14.00;;;10.23;;
20138;SDS011;10230;51.502;10.800;2023-06-22T06:07:13;10.63;;;9.23;;
20138;SDS011;10230;51.502;10.800;2023-06-22T06:09:39;9.27;;;7.32;;
20138;SDS011;10230;51.502;10.800;2023-06-22T06:12:05;9.27;;;8.27;;
20138;SDS011;10230;51.502;10.800;2023-06-22T06:14:31;10.82;;;8.13;;
20138;SDS011;10230;51.502;10.800;2023-06-22T06:16:57;9.85;;;8.88;;
20138;SDS011;10230;51.502;10.800;2023-06-22T06:19:23;9.35;;;8.45;;
20138;SDS011;10230;51.502;10.800;2023-06-22T06:21:49;9.23;;;7.88;;
20138;SDS011;10230;51.502;10.800;2023-06-22T06:24:15;11.65;;;9.25;;
20138;SDS011;10230;51.502;10.800;2023-06-22T06:26:41;10.18;;;8.60;;
20138;SDS011;10230;51.502;10.800;2023-06-22T06:29:07;9.18;;;8.23;;
20138;SDS011;10230;51.502;10.800;2023-06-22T06:31:33;8.48;;;7.55;;
20138;SDS011;10230;51.502;10.800;2023-06-22T06:33:58;8.32;;;7.53;;
20138;SDS011;10230;51.502;10.800;2023-06-22T06:36:24;9.15;;;8.00;;
20138;SDS011;10230;51.502;10.800;2023-06-22T06:38:50;7.85;;;7.05;;
20138;SDS011;10230;51.502;10.800;2023-06-22T06:41:16;8.93;;;7.97;;
20138;SDS011;10230;51.502;10.800;2023-06-22T06:43:43;11.23;;;10.13;;
20138;SDS011;10230;51.502;10.800;2023-06-22T06:46:09;9.43;;;8.48;;
20138;SDS011;10230;51.502;10.800;2023-06-22T06:48:35;9.68;;;8.60;;
20138;SDS011;10230;51.502;10.800;2023-06-22T06:51:01;12.50;;;9.65;;
20138;SDS011;10230;51.502;10.800;2023-06-22T06:53:27;10.70;;;9.60;;
20138;SDS011;10230;51.502;10.800;2023-06-22T06:55:54;9.13;;;8.23;;
20138;SDS011;10230;51.502;10.800;2023-06-22T06:58:20;8.98;;;8.07;;
20138;SDS011;10230;51.502;10.800;2023-06-22T07:00:48;11.07;;;9.80;;
20138;SDS011;10230;51.502;10.800;2023-06-22T07:03:14;10.27;;;9.27;;
20138;SDS011;10230;51.502;10.800;2023-06-22T07:05:40;11.27;;;8.23;;
20138;SDS011;10230;51.502;10.800;2023-06-22T07:08:06;11.88;;;9.13;;
20138;SDS011;10230;51.502;10.800;2023-06-22T07:10:32;8.20;;;7.35;;
20138;SDS011;10230;51.502;10.800;2023-06-22T07:12:58;10.80;;;8.80;;
20138;SDS011;10230;51.502;10.800;2023-06-22T07:15:25;11.93;;;9.63;;
20138;SDS011;10230;51.502;10.800;2023-06-22T07:17:51;11.68;;;8.93;;
20138;SDS011;10230;51.502;10.800;2023-06-22T07:20:17;12.02;;;9.82;;
20138;SDS011;10230;51.502;10.800;2023-06-22T07:22:44;9.82;;;8.40;;
20138;SDS011;10230;51.502;10.800;2023-06-22T07:25:11;8.90;;;7.93;;
20138;SDS011;10230;51.502;10.800;2023-06-22T07:27:39;12.20;;;8.00;;
20138;SDS011;10230;51.502;10.800;2023-06-22T07:30:10;16.08;;;11.02;;
20138;SDS011;10230;51.502;10.800;2023-06-22T07:32:36;12.63;;;9.57;;
20138;SDS011;10230;51.502;10.800;2023-06-22T07:35:06;10.88;;;9.02;;
20138;SDS011;10230;51.502;10.800;2023-06-22T07:37:32;12.68;;;9.20;;
20138;SDS011;10230;51.502;10.800;2023-06-22T07:39:59;13.40;;;9.68;;
20138;SDS011;10230;51.502;10.800;2023-06-22T07:42:25;10.93;;;9.27;;
20138;SDS011;10230;51.502;10.800;2023-06-22T07:44:51;10.18;;;7.85;;
20138;SDS011;10230;51.502;10.800;2023-06-22T07:47:19;12.07;;;8.93;;
20138;SDS011;10230;51.502;10.800;2023-06-22T07:49:48;8.77;;;7.82;;
20138;SDS011;10230;51.502;10.800;2023-06-22T07:52:15;8.15;;;7.43;;
20138;SDS011;10230;51.502;10.800;2023-06-22T07:54:41;10.38;;;8.25;;
20138;SDS011;10230;51.502;10.800;2023-06-22T07:57:07;11.52;;;8.73;;
20138;SDS011;10230;51.502;10.800;2023-06-22T07:59:32;9.07;;;7.85;;
20138;SDS011;10230;51.502;10.800;2023-06-22T08:01:58;11.43;;;8.95;;
20138;SDS011;10230;51.502;10.800;2023-06-22T08:04:25;8.45;;;7.65;;
20138;SDS011;10230;51.502;10.800;2023-06-22T08:06:52;9.98;;;8.55;;
20138;SDS011;10230;51.502;10.800;2023-06-22T08:09:19;10.43;;;9.43;;
20138;SDS011;10230;51.502;10.800;2023-06-22T08:11:44;9.35;;;8.50;;
20138;SDS011;10230;51.502;10.800;2023-06-22T08:14:10;9.20;;;7.38;;
20138;SDS011;10230;51.502;10.800;2023-06-22T08:16:36;12.40;;;9.73;;
20138;SDS011;10230;51.502;10.800;2023-06-22T08:19:01;9.85;;;8.95;;
20138;SDS011;10230;51.502;10.800;2023-06-22T08:21:32;9.60;;;8.75;;
20138;SDS011;10230;51.502;10.800;2023-06-22T08:24:01;13.13;;;9.95;;
20138;SDS011;10230;51.502;10.800;2023-06-22T08:26:34;9.85;;;8.95;;
20138;SDS011;10230;51.502;10.800;2023-06-22T08:29:03;10.35;;;9.50;;
20138;SDS011;10230;51.502;10.800;2023-06-22T08:31:30;9.77;;;8.98;;
20138;SDS011;10230;51.502;10.800;2023-06-22T08:33:59;8.63;;;7.82;;
20138;SDS011;10230;51.502;10.800;2023-06-22T08:36:25;8.57;;;6.97;;
20138;SDS011;10230;51.502;10.800;2023-06-22T08:38:55;6.22;;;5.82;;
20138;SDS011;10230;51.502;10.800;2023-06-22T08:41:30;5.90;;;5.50;;
20138;SDS011;10230;51.502;10.800;2023-06-22T08:43:56;6.53;;;5.72;;
20138;SDS011;10230;51.502;10.800;2023-06-22T08:46:22;5.38;;;4.97;;
20138;SDS011;10230;51.502;10.800;2023-06-22T08:48:55;5.10;;;4.60;;
20138;SDS011;10230;51.502;10.800;2023-06-22T08:51:21;5.30;;;4.90;;
20138;SDS011;10230;51.502;10.800;2023-06-22T08:53:55;5.50;;;5.10;;
20138;SDS011;10230;51.502;10.800;2023-06-22T08:56:22;5.60;;;4.97;;
20138;SDS011;10230;51.502;10.800;2023-06-22T08:58:53;5.25;;;4.85;;
20138;SDS011;10230;51.502;10.800;2023-06-22T09:01:20;4.50;;;4.18;;
20138;SDS011;10230;51.502;10.800;2023-06-22T09:03:46;4.85;;;4.43;;
20138;SDS011;10230;51.502;10.800;2023-06-22T09:09:10;4.50;;;4.13;;
20138;SDS011;10230;51.502;10.800;2023-06-22T09:11:36;4.00;;;3.70;;
20138;SDS011;10230;51.502;10.800;2023-06-22T09:14:02;3.80;;;3.50;;
20138;SDS011;10230;51.502;10.800;2023-06-22T09:16:29;4.20;;;3.90;;
20138;SDS011;10230;51.502;10.800;2023-06-22T09:19:18;3.78;;;3.47;;
20138;SDS011;10230;51.502;10.800;2023-06-22T09:21:44;4.47;;;4.07;;
20138;SDS011;10230;51.502;10.800;2023-06-22T09:24:11;4.93;;;4.55;;
20138;SDS011;10230;51.502;10.800;2023-06-22T09:26:59;3.85;;;3.60;;
20138;SDS011;10230;51.502;10.800;2023-06-22T09:29:24;4.57;;;4.18;;
20138;SDS011;10230;51.502;10.800;2023-06-22T09:31:52;4.78;;;4.38;;
20138;SDS011;10230;51.502;10.800;2023-06-22T09:34:24;4.53;;;4.18;;
20138;SDS011;10230;51.502;10.800;2023-06-22T09:36:53;4.57;;;4.28;;
20138;SDS011;10230;51.502;10.800;2023-06-22T09:39:20;4.60;;;4.30;;
20138;SDS011;10230;51.502;10.800;2023-06-22T09:41:46;5.32;;;3.97;;
20138;SDS011;10230;51.502;10.800;2023-06-22T09:47:08;3.70;;;3.40;;
20138;SDS011;10230;51.502;10.800;2023-06-22T09:52:41;4.15;;;3.75;;
20138;SDS011;10230;51.502;10.800;2023-06-22T09:55:17;4.28;;;3.97;;
20138;SDS011;10230;51.502;10.800;2023-06-22T09:58:09;3.55;;;3.35;;
20138;SDS011;10230;51.502;10.800;2023-06-22T10:01:02;4.57;;;4.28;;
20138;SDS011;10230;51.502;10.800;2023-06-22T10:10:20;3.75;;;3.45;;
20138;SDS011;10230;51.502;10.800;2023-06-22T10:13:12;4.10;;;3.70;;
20138;SDS011;10230;51.502;10.800;2023-06-22T10:15:57;4.15;;;3.85;;
20138;SDS011;10230;51.502;10.800;2023-06-22T10:19:12;4.40;;;4.10;;
20138;SDS011;10230;51.502;10.800;2023-06-22T10:21:39;4.65;;;4.00;;
20138;SDS011;10230;51.502;10.800;2023-06-22T10:24:06;4.10;;;3.80;;
20138;SDS011;10230;51.502;10.800;2023-06-22T10:26:33;7.28;;;3.83;;
20138;SDS011;10230;51.502;10.800;2023-06-22T10:29:00;4.35;;;4.05;;
20138;SDS011;10230;51.502;10.800;2023-06-22T10:31:30;4.50;;;4.10;;
20138;SDS011;10230;51.502;10.800;2023-06-22T10:34:05;4.30;;;4.00;;
20138;SDS011;10230;51.502;10.800;2023-06-22T10:36:31;4.38;;;3.97;;
20138;SDS011;10230;51.502;10.800;2023-06-22T10:38:57;4.72;;;4.28;;
20138;SDS011;10230;51.502;10.800;2023-06-22T10:41:26;4.43;;;3.92;;
20138;SDS011;10230;51.502;10.800;2023-06-22T10:43:55;4.43;;;3.95;;
20138;SDS011;10230;51.502;10.800;2023-06-22T10:46:24;4.97;;;4.47;;
20138;SDS011;10230;51.502;10.800;2023-06-22T10:49:03;4.20;;;3.90;;
20138;SDS011;10230;51.502;10.800;2023-06-22T10:51:29;4.20;;;3.90;;
20138;SDS011;10230;51.502;10.800;2023-06-22T10:53:57;5.15;;;4.75;;
20138;SDS011;10230;51.502;10.800;2023-06-22T10:56:23;4.78;;;4.38;;
20138;SDS011;10230;51.502;10.800;2023-06-22T10:58:49;5.07;;;4.67;;
20138;SDS011;10230;51.502;10.800;2023-06-22T11:01:14;5.38;;;4.88;;
20138;SDS011;10230;51.502;10.800;2023-06-22T11:03:40;4.88;;;4.40;;
20138;SDS011;10230;51.502;10.800;2023-06-22T11:06:06;5.13;;;4.72;;
20138;SDS011;10230;51.502;10.800;2023-06-22T11:08:32;5.05;;;4.65;;
20138;SDS011;10230;51.502;10.800;2023-06-22T11:10:58;5.50;;;4.90;;
20138;SDS011;10230;51.502;10.800;2023-06-22T11:13:24;5.60;;;4.43;;
20138;SDS011;10230;51.502;10.800;2023-06-22T11:15:50;4.97;;;4.57;;
20138;SDS011;10230;51.502;10.800;2023-06-22T11:18:16;5.13;;;4.57;;
20138;SDS011;10230;51.502;10.800;2023-06-22T11:20:42;5.13;;;4.72;;
20138;SDS011;10230;51.502;10.800;2023-06-22T11:23:08;5.72;;;5.00;;
20138;SDS011;10230;51.502;10.800;2023-06-22T11:25:34;4.90;;;4.55;;
20138;SDS011;10230;51.502;10.800;2023-06-22T11:28:03;4.85;;;4.22;;
20138;SDS011;10230;51.502;10.800;2023-06-22T11:30:30;4.53;;;4.13;;
20138;SDS011;10230;51.502;10.800;2023-06-22T11:32:56;4.47;;;4.07;;
20138;SDS011;10230;51.502;10.800;2023-06-22T11:35:23;5.00;;;4.32;;
20138;SDS011;10230;51.502;10.800;2023-06-22T11:37:49;5.32;;;4.82;;
20138;SDS011;10230;51.502;10.800;2023-06-22T11:40:15;5.20;;;4.20;;
20138;SDS011;10230;51.502;10.800;2023-06-22T11:42:42;5.53;;;5.03;;
20138;SDS011;10230;51.502;10.800;2023-06-22T11:45:08;5.53;;;4.40;;
20138;SDS011;10230;51.502;10.800;2023-06-22T11:47:35;5.30;;;4.90;;
20138;SDS011;10230;51.502;10.800;2023-06-22T11:50:01;5.43;;;4.93;;
20138;SDS011;10230;51.502;10.800;2023-06-22T11:52:27;4.90;;;4.25;;
20138;SDS011;10230;51.502;10.800;2023-06-22T11:54:53;4.63;;;4.22;;
20138;SDS011;10230;51.502;10.800;2023-06-22T11:57:19;5.20;;;4.63;;
20138;SDS011;10230;51.502;10.800;2023-06-22T11:59:44;6.43;;;4.93;;
20138;SDS011;10230;51.502;10.800;2023-06-22T12:02:10;5.75;;;4.95;;
20138;SDS011;10230;51.502;10.800;2023-06-22T12:04:35;5.32;;;4.85;;
20138;SDS011;10230;51.502;10.800;2023-06-22T12:07:02;6.05;;;5.43;;
20138;SDS011;10230;51.502;10.800;2023-06-22T12:09:28;5.35;;;4.90;;
20138;SDS011;10230;51.502;10.800;2023-06-22T12:11:54;5.18;;;4.57;;
20138;SDS011;10230;51.502;10.800;2023-06-22T12:14:21;5.78;;;5.28;;
20138;SDS011;10230;51.502;10.800;2023-06-22T12:16:47;5.15;;;4.68;;
20138;SDS011;10230;51.502;10.800;2023-06-22T12:19:13;5.38;;;4.80;;
20138;SDS011;10230;51.502;10.800;2023-06-22T12:21:39;5.40;;;4.95;;
20138;SDS011;10230;51.502;10.800;2023-06-22T12:24:05;5.18;;;4.68;;
20138;SDS011;10230;51.502;10.800;2023-06-22T12:26:31;5.70;;;5.20;;
20138;SDS011;10230;51.502;10.800;2023-06-22T12:28:57;5.22;;;4.60;;
20138;SDS011;10230;51.502;10.800;2023-06-22T12:31:23;5.05;;;4.65;;
20138;SDS011;10230;51.502;10.800;2023-06-22T12:33:49;5.88;;;5.38;;
20138;SDS011;10230;51.502;10.800;2023-06-22T12:36:15;5.55;;;5.05;;
20138;SDS011;10230;51.502;10.800;2023-06-22T12:38:41;5.80;;;5.18;;
20138;SDS011;10230;51.502;10.800;2023-06-22T12:41:07;5.72;;;5.13;;
20138;SDS011;10230;51.502;10.800;2023-06-22T12:43:33;6.57;;;5.97;;
20138;SDS011;10230;51.502;10.800;2023-06-22T12:45:59;5.30;;;4.90;;
20138;SDS011;10230;51.502;10.800;2023-06-22T12:48:26;5.10;;;4.70;;
20138;SDS011;10230;51.502;10.800;2023-06-22T12:50:53;5.93;;;5.30;;
20138;SDS011;10230;51.502;10.800;2023-06-22T12:53:19;5.65;;;5.20;;
20138;SDS011;10230;51.502;10.800;2023-06-22T12:55:45;5.07;;;4.63;;
20138;SDS011;10230;51.502;10.800;2023-06-22T12:58:11;5.43;;;4.40;;
20138;SDS011;10230;51.502;10.800;2023-06-22T13:00:37;7.22;;;4.40;;
20138;SDS011;10230;51.502;10.800;2023-06-22T13:03:04;5.28;;;3.92;;
20138;SDS011;10230;51.502;10.800;2023-06-22T13:05:29;5.03;;;4.53;;
20138;SDS011;10230;51.502;10.800;2023-06-22T13:07:55;5.03;;;4.30;;
20138;SDS011;10230;51.502;10.800;2023-06-22T13:10:21;4.97;;;4.47;;
20138;SDS011;10230;51.502;10.800;2023-06-22T13:12:47;7.15;;;4.50;;
20138;SDS011;10230;51.502;10.800;2023-06-22T13:15:12;4.60;;;4.20;;
20138;SDS011;10230;51.502;10.800;2023-06-22T13:17:38;4.63;;;4.20;;
20138;SDS011;10230;51.502;10.800;2023-06-22T13:20:04;5.20;;;4.70;;
20138;SDS011;10230;51.502;10.800;2023-06-22T13:22:31;4.70;;;4.10;;
20138;SDS011;10230;51.502;10.800;2023-06-22T13:25:04;5.13;;;4.63;;
20138;SDS011;10230;51.502;10.800;2023-06-22T13:27:31;4.13;;;3.78;;
20138;SDS011;10230;51.502;10.800;2023-06-22T13:29:57;4.78;;;3.88;;
20138;SDS011;10230;51.502;10.800;2023-06-22T13:32:22;5.00;;;4.28;;
20138;SDS011;10230;51.502;10.800;2023-06-22T13:34:48;3.95;;;3.58;;
20138;SDS011;10230;51.502;10.800;2023-06-22T13:37:14;3.95;;;3.65;;
20138;SDS011;10230;51.502;10.800;2023-06-22T13:39:39;4.35;;;3.95;;
20138;SDS011;10230;51.502;10.800;2023-06-22T13:42:05;4.90;;;4.38;;
20138;SDS011;10230;51.502;10.800;2023-06-22T13:44:31;6.22;;;4.03;;
20138;SDS011;10230;51.502;10.800;2023-06-22T13:46:56;4.78;;;3.95;;
20138;SDS011;10230;51.502;10.800;2023-06-22T13:49:22;4.65;;;4.25;;
20138;SDS011;10230;51.502;10.800;2023-06-22T13:51:48;4.90;;;3.97;;
20138;SDS011;10230;51.502;10.800;2023-06-22T13:54:14;5.60;;;4.03;;
20138;SDS011;10230;51.502;10.800;2023-06-22T13:56:40;4.63;;;3.80;;
20138;SDS011;10230;51.502;10.800;2023-06-22T13:59:05;4.45;;;3.72;;
20138;SDS011;10230;51.502;10.800;2023-06-22T14:01:35;4.32;;;3.92;;
20138;SDS011;10230;51.502;10.800;2023-06-22T14:04:01;4.10;;;3.70;;
20138;SDS011;10230;51.502;10.800;2023-06-22T14:06:27;4.10;;;3.70;;
20138;SDS011;10230;51.502;10.800;2023-06-22T14:08:52;3.90;;;3.50;;
20138;SDS011;10230;51.502;10.800;2023-06-22T14:11:18;5.15;;;4.25;;
20138;SDS011;10230;51.502;10.800;2023-06-22T14:13:44;4.28;;;3.88;;
20138;SDS011;10230;51.502;10.800;2023-06-22T14:16:09;4.60;;;4.05;;
20138;SDS011;10230;51.502;10.800;2023-06-22T14:18:35;5.75;;;4.25;;
20138;SDS011;10230;51.502;10.800;2023-06-22T14:21:01;4.75;;;4.00;;
20138;SDS011;10230;51.502;10.800;2023-06-22T14:23:27;4.32;;;3.92;;
20138;SDS011;10230;51.502;10.800;2023-06-22T14:25:52;5.47;;;3.72;;
20138;SDS011;10230;51.502;10.800;2023-06-22T14:28:18;5.35;;;4.28;;
20138;SDS011;10230;51.502;10.800;2023-06-22T14:30:44;4.10;;;3.70;;
20138;SDS011;10230;51.502;10.800;2023-06-22T14:33:10;5.05;;;3.67;;
20138;SDS011;10230;51.502;10.800;2023-06-22T14:35:37;4.50;;;4.13;;
20138;SDS011;10230;51.502;10.800;2023-06-22T14:38:02;4.20;;;3.80;;
20138;SDS011;10230;51.502;10.800;2023-06-22T14:40:28;5.53;;;4.20;;
20138;SDS011;10230;51.502;10.800;2023-06-22T14:42:54;6.30;;;4.00;;
20138;SDS011;10230;51.502;10.800;2023-06-22T14:45:21;4.72;;;4.13;;
20138;SDS011;10230;51.502;10.800;2023-06-22T14:47:48;5.88;;;4.70;;
20138;SDS011;10230;51.502;10.800;2023-06-22T14:50:13;4.95;;;4.30;;
20138;SDS011;10230;51.502;10.800;2023-06-22T14:52:39;4.32;;;3.72;;
20138;SDS011;10230;51.502;10.800;2023-06-22T14:55:05;6.65;;;4.15;;
20138;SDS011;10230;51.502;10.800;2023-06-22T14:57:31;4.63;;;4.22;;